Terminal Aerodrome Forecast
Issued by NWS Duluth, MN

Home | Current Version | Previous Version | Text Only | Print | Product List | Glossary On
Versions: 1 2 3 4 5 6 7 8 9 10 11 12 13 14 15 16 17 18 19 20 21 22 23 24 25 26 27 28
000
FTUS43 KDLH 220500
TAFINL
TAF
KINL 220536Z 2206/2306 13007KT 6SM BR OVC007
      TEMPO 2208/2211 2SM -DZ OVC005
     FM221100 11005KT 3SM -SNDZ OVC005
     FM221400 10004KT 1 1/2SM -SNRA BR OVC003
     FM222300 11004KT 2SM -DZSN OVC003=

USA.gov is the U.S. government's official web portal to all federal, state and local government web resources and services.